sensor_id;sensor_type;location;lat;lon;timestamp;P1;durP1;ratioP1;P2;durP2;ratioP2
55220;SDS011;41089;51.448;6.604;2023-02-08T00:01:16;17.40;;;10.63;;
55220;SDS011;41089;51.448;6.604;2023-02-08T00:07:18;17.70;;;12.00;;
55220;SDS011;41089;51.448;6.604;2023-02-08T00:13:19;16.90;;;10.52;;
55220;SDS011;41089;51.448;6.604;2023-02-08T00:19:19;17.15;;;11.25;;
55220;SDS011;41089;51.448;6.604;2023-02-08T00:25:19;16.53;;;10.60;;
55220;SDS011;41089;51.448;6.604;2023-02-08T00:31:20;14.50;;;10.17;;
55220;SDS011;41089;51.448;6.604;2023-02-08T00:37:20;14.37;;;9.10;;
55220;SDS011;41089;51.448;6.604;2023-02-08T00:43:21;18.13;;;9.83;;
55220;SDS011;41089;51.448;6.604;2023-02-08T00:49:21;14.15;;;9.75;;
55220;SDS011;41089;51.448;6.604;2023-02-08T00:55:21;15.45;;;8.80;;
55220;SDS011;41089;51.448;6.604;2023-02-08T01:01:22;12.70;;;8.80;;
55220;SDS011;41089;51.448;6.604;2023-02-08T01:07:22;13.97;;;9.33;;
55220;SDS011;41089;51.448;6.604;2023-02-08T01:13:23;13.33;;;9.37;;
55220;SDS011;41089;51.448;6.604;2023-02-08T01:19:23;15.60;;;9.33;;
55220;SDS011;41089;51.448;6.604;2023-02-08T01:25:23;14.83;;;9.40;;
55220;SDS011;41089;51.448;6.604;2023-02-08T01:31:25;14.77;;;9.00;;
55220;SDS011;41089;51.448;6.604;2023-02-08T01:37:28;14.77;;;9.50;;
55220;SDS011;41089;51.448;6.604;2023-02-08T01:43:29;12.77;;;8.68;;
55220;SDS011;41089;51.448;6.604;2023-02-08T01:49:32;17.80;;;9.35;;
55220;SDS011;41089;51.448;6.604;2023-02-08T01:55:35;15.13;;;9.70;;
55220;SDS011;41089;51.448;6.604;2023-02-08T02:01:37;13.05;;;9.70;;
55220;SDS011;41089;51.448;6.604;2023-02-08T02:07:39;14.55;;;9.18;;
55220;SDS011;41089;51.448;6.604;2023-02-08T02:13:39;12.98;;;8.82;;
55220;SDS011;41089;51.448;6.604;2023-02-08T02:44:35;13.85;;;8.52;;
55220;SDS011;41089;51.448;6.604;2023-02-08T02:50:45;13.55;;;8.32;;
55220;SDS011;41089;51.448;6.604;2023-02-08T02:56:49;18.13;;;10.13;;
55220;SDS011;41089;51.448;6.604;2023-02-08T03:02:51;14.00;;;9.57;;
55220;SDS011;41089;51.448;6.604;2023-02-08T03:14:58;13.85;;;8.60;;
55220;SDS011;41089;51.448;6.604;2023-02-08T03:21:08;13.98;;;9.05;;
55220;SDS011;41089;51.448;6.604;2023-02-08T03:27:17;13.55;;;8.98;;
55220;SDS011;41089;51.448;6.604;2023-02-08T03:33:27;13.63;;;8.87;;
55220;SDS011;41089;51.448;6.604;2023-02-08T03:39:32;13.05;;;8.48;;
55220;SDS011;41089;51.448;6.604;2023-02-08T03:45:56;15.90;;;9.00;;
55220;SDS011;41089;51.448;6.604;2023-02-08T03:51:57;16.35;;;9.65;;
55220;SDS011;41089;51.448;6.604;2023-02-08T04:04:17;12.45;;;8.98;;
55220;SDS011;41089;51.448;6.604;2023-02-08T04:10:19;16.02;;;9.15;;
55220;SDS011;41089;51.448;6.604;2023-02-08T04:16:19;18.20;;;9.82;;
55220;SDS011;41089;51.448;6.604;2023-02-08T04:22:19;18.43;;;10.17;;
55220;SDS011;41089;51.448;6.604;2023-02-08T04:28:20;14.40;;;9.63;;
55220;SDS011;41089;51.448;6.604;2023-02-08T04:34:20;16.02;;;9.43;;
55220;SDS011;41089;51.448;6.604;2023-02-08T04:40:21;12.57;;;8.77;;
55220;SDS011;41089;51.448;6.604;2023-02-08T04:46:21;15.15;;;9.38;;
55220;SDS011;41089;51.448;6.604;2023-02-08T04:52:22;16.37;;;10.27;;
55220;SDS011;41089;51.448;6.604;2023-02-08T04:58:23;15.70;;;10.10;;
55220;SDS011;41089;51.448;6.604;2023-02-08T05:04:23;16.52;;;10.18;;
55220;SDS011;41089;51.448;6.604;2023-02-08T05:10:24;14.38;;;9.82;;
55220;SDS011;41089;51.448;6.604;2023-02-08T05:16:25;16.75;;;10.23;;
55220;SDS011;41089;51.448;6.604;2023-02-08T05:22:25;16.45;;;10.80;;
55220;SDS011;41089;51.448;6.604;2023-02-08T05:28:25;17.25;;;10.48;;
55220;SDS011;41089;51.448;6.604;2023-02-08T05:34:26;16.88;;;10.27;;
55220;SDS011;41089;51.448;6.604;2023-02-08T05:40:26;17.40;;;10.82;;
55220;SDS011;41089;51.448;6.604;2023-02-08T05:46:28;14.45;;;10.57;;
55220;SDS011;41089;51.448;6.604;2023-02-08T05:52:28;20.10;;;10.45;;
55220;SDS011;41089;51.448;6.604;2023-02-08T05:58:29;16.53;;;10.53;;
55220;SDS011;41089;51.448;6.604;2023-02-08T06:04:29;18.42;;;10.85;;
55220;SDS011;41089;51.448;6.604;2023-02-08T06:10:30;19.60;;;12.02;;
55220;SDS011;41089;51.448;6.604;2023-02-08T06:16:30;17.35;;;11.20;;
55220;SDS011;41089;51.448;6.604;2023-02-08T06:22:32;16.67;;;10.87;;
55220;SDS011;41089;51.448;6.604;2023-02-08T06:28:34;22.05;;;11.55;;
55220;SDS011;41089;51.448;6.604;2023-02-08T06:34:34;21.05;;;12.98;;
55220;SDS011;41089;51.448;6.604;2023-02-08T06:40:35;20.48;;;11.57;;
55220;SDS011;41089;51.448;6.604;2023-02-08T06:46:35;17.63;;;12.10;;
55220;SDS011;41089;51.448;6.604;2023-02-08T06:52:36;23.10;;;13.97;;
55220;SDS011;41089;51.448;6.604;2023-02-08T06:58:36;20.65;;;14.52;;
55220;SDS011;41089;51.448;6.604;2023-02-08T07:04:37;23.05;;;14.02;;
55220;SDS011;41089;51.448;6.604;2023-02-08T07:10:37;26.77;;;15.77;;
55220;SDS011;41089;51.448;6.604;2023-02-08T07:16:40;24.38;;;15.57;;
55220;SDS011;41089;51.448;6.604;2023-02-08T07:22:51;31.15;;;19.05;;
55220;SDS011;41089;51.448;6.604;2023-02-08T07:28:52;26.27;;;18.08;;
55220;SDS011;41089;51.448;6.604;2023-02-08T07:34:52;27.93;;;19.00;;
55220;SDS011;41089;51.448;6.604;2023-02-08T07:40:59;33.35;;;21.00;;
55220;SDS011;41089;51.448;6.604;2023-02-08T07:47:01;33.58;;;19.45;;
55220;SDS011;41089;51.448;6.604;2023-02-08T07:53:02;28.00;;;17.88;;
55220;SDS011;41089;51.448;6.604;2023-02-08T07:59:03;30.80;;;19.33;;
55220;SDS011;41089;51.448;6.604;2023-02-08T08:05:03;28.33;;;18.92;;
55220;SDS011;41089;51.448;6.604;2023-02-08T08:11:04;32.53;;;19.92;;
55220;SDS011;41089;51.448;6.604;2023-02-08T08:17:05;38.17;;;20.40;;
55220;SDS011;41089;51.448;6.604;2023-02-08T08:23:05;23.73;;;17.03;;
55220;SDS011;41089;51.448;6.604;2023-02-08T08:29:06;27.23;;;19.33;;
55220;SDS011;41089;51.448;6.604;2023-02-08T08:35:07;28.30;;;18.75;;
55220;SDS011;41089;51.448;6.604;2023-02-08T08:41:08;23.50;;;16.50;;
55220;SDS011;41089;51.448;6.604;2023-02-08T08:47:10;24.38;;;12.23;;
55220;SDS011;41089;51.448;6.604;2023-02-08T08:53:11;25.50;;;10.95;;
55220;SDS011;41089;51.448;6.604;2023-02-08T08:59:12;13.80;;;9.43;;
55220;SDS011;41089;51.448;6.604;2023-02-08T09:05:12;14.48;;;7.88;;
55220;SDS011;41089;51.448;6.604;2023-02-08T09:11:14;11.52;;;7.38;;
55220;SDS011;41089;51.448;6.604;2023-02-08T09:17:15;11.65;;;7.65;;
55220;SDS011;41089;51.448;6.604;2023-02-08T09:23:15;13.82;;;6.38;;
55220;SDS011;41089;51.448;6.604;2023-02-08T09:29:15;9.77;;;6.90;;
55220;SDS011;41089;51.448;6.604;2023-02-08T09:35:16;9.70;;;6.30;;
55220;SDS011;41089;51.448;6.604;2023-02-08T09:47:31;10.43;;;6.80;;
55220;SDS011;41089;51.448;6.604;2023-02-08T09:53:34;11.20;;;6.82;;
55220;SDS011;41089;51.448;6.604;2023-02-08T09:59:36;11.25;;;7.05;;
55220;SDS011;41089;51.448;6.604;2023-02-08T10:05:38;12.70;;;6.85;;
55220;SDS011;41089;51.448;6.604;2023-02-08T10:18:22;11.70;;;5.88;;
55220;SDS011;41089;51.448;6.604;2023-02-08T10:30:56;10.02;;;6.20;;
55220;SDS011;41089;51.448;6.604;2023-02-08T10:36:59;12.18;;;5.93;;
55220;SDS011;41089;51.448;6.604;2023-02-08T10:43:05;9.43;;;5.50;;
55220;SDS011;41089;51.448;6.604;2023-02-08T10:55:22;7.10;;;5.00;;
55220;SDS011;41089;51.448;6.604;2023-02-08T11:01:23;6.77;;;4.73;;
55220;SDS011;41089;51.448;6.604;2023-02-08T11:07:25;7.80;;;4.85;;
55220;SDS011;41089;51.448;6.604;2023-02-08T11:13:30;8.07;;;4.25;;
55220;SDS011;41089;51.448;6.604;2023-02-08T11:19:38;6.45;;;4.07;;
55220;SDS011;41089;51.448;6.604;2023-02-08T11:25:45;7.05;;;5.05;;
55220;SDS011;41089;51.448;6.604;2023-02-08T11:37:59;9.23;;;4.97;;
55220;SDS011;41089;51.448;6.604;2023-02-08T11:44:03;8.90;;;4.90;;
55220;SDS011;41089;51.448;6.604;2023-02-08T11:50:06;11.05;;;5.47;;
55220;SDS011;41089;51.448;6.604;2023-02-08T11:56:18;8.13;;;4.93;;
55220;SDS011;41089;51.448;6.604;2023-02-08T12:02:32;8.48;;;5.00;;
55220;SDS011;41089;51.448;6.604;2023-02-08T12:21:20;10.40;;;4.50;;
55220;SDS011;41089;51.448;6.604;2023-02-08T12:39:42;6.47;;;3.33;;
55220;SDS011;41089;51.448;6.604;2023-02-08T12:52:50;6.50;;;3.47;;
55220;SDS011;41089;51.448;6.604;2023-02-08T12:58:56;4.28;;;3.22;;
55220;SDS011;41089;51.448;6.604;2023-02-08T13:04:59;6.53;;;3.35;;
55220;SDS011;41089;51.448;6.604;2023-02-08T13:11:05;4.15;;;3.10;;
55220;SDS011;41089;51.448;6.604;2023-02-08T13:17:16;6.97;;;3.80;;
55220;SDS011;41089;51.448;6.604;2023-02-08T13:23:24;7.22;;;3.97;;
55220;SDS011;41089;51.448;6.604;2023-02-08T13:29:26;6.53;;;3.67;;
55220;SDS011;41089;51.448;6.604;2023-02-08T13:35:29;5.10;;;3.70;;
55220;SDS011;41089;51.448;6.604;2023-02-08T13:41:30;5.03;;;3.70;;
55220;SDS011;41089;51.448;6.604;2023-02-08T13:47:32;7.13;;;4.10;;
55220;SDS011;41089;51.448;6.604;2023-02-08T13:59:37;5.85;;;4.03;;
55220;SDS011;41089;51.448;6.604;2023-02-08T14:11:47;5.88;;;4.32;;
55220;SDS011;41089;51.448;6.604;2023-02-08T14:17:50;5.38;;;3.67;;
55220;SDS011;41089;51.448;6.604;2023-02-08T14:24:02;6.65;;;3.92;;
55220;SDS011;41089;51.448;6.604;2023-02-08T14:36:28;5.35;;;4.65;;
55220;SDS011;41089;51.448;6.604;2023-02-08T14:48:57;6.25;;;4.75;;
55220;SDS011;41089;51.448;6.604;2023-02-08T14:55:01;9.55;;;5.38;;
55220;SDS011;41089;51.448;6.604;2023-02-08T15:01:06;7.32;;;4.28;;
55220;SDS011;41089;51.448;6.604;2023-02-08T15:07:16;5.95;;;5.07;;
55220;SDS011;41089;51.448;6.604;2023-02-08T15:13:19;6.95;;;4.43;;
55220;SDS011;41089;51.448;6.604;2023-02-08T15:19:25;6.15;;;4.30;;
55220;SDS011;41089;51.448;6.604;2023-02-08T15:25:28;6.30;;;4.53;;
55220;SDS011;41089;51.448;6.604;2023-02-08T15:31:31;6.90;;;4.55;;
55220;SDS011;41089;51.448;6.604;2023-02-08T15:37:32;9.18;;;4.85;;
55220;SDS011;41089;51.448;6.604;2023-02-08T15:43:33;5.93;;;4.25;;
55220;SDS011;41089;51.448;6.604;2023-02-08T15:49:35;10.65;;;4.72;;
55220;SDS011;41089;51.448;6.604;2023-02-08T15:55:46;7.63;;;4.32;;
55220;SDS011;41089;51.448;6.604;2023-02-08T16:01:49;4.13;;;3.47;;
55220;SDS011;41089;51.448;6.604;2023-02-08T16:07:51;7.22;;;4.50;;
55220;SDS011;41089;51.448;6.604;2023-02-08T16:13:53;6.85;;;3.90;;
55220;SDS011;41089;51.448;6.604;2023-02-08T16:19:55;10.02;;;3.63;;
55220;SDS011;41089;51.448;6.604;2023-02-08T16:25:55;7.55;;;4.05;;
55220;SDS011;41089;51.448;6.604;2023-02-08T16:38:20;7.07;;;4.07;;
55220;SDS011;41089;51.448;6.604;2023-02-08T16:44:25;5.95;;;4.13;;
55220;SDS011;41089;51.448;6.604;2023-02-08T16:50:31;7.05;;;4.50;;
55220;SDS011;41089;51.448;6.604;2023-02-08T16:56:33;7.07;;;4.07;;
55220;SDS011;41089;51.448;6.604;2023-02-08T17:02:34;9.40;;;4.45;;
55220;SDS011;41089;51.448;6.604;2023-02-08T17:08:34;6.97;;;4.75;;
55220;SDS011;41089;51.448;6.604;2023-02-08T17:14:35;7.37;;;4.40;;
55220;SDS011;41089;51.448;6.604;2023-02-08T17:20:36;11.30;;;4.75;;
55220;SDS011;41089;51.448;6.604;2023-02-08T17:26:38;8.13;;;5.10;;
55220;SDS011;41089;51.448;6.604;2023-02-08T17:32:40;7.70;;;4.15;;
55220;SDS011;41089;51.448;6.604;2023-02-08T17:38:42;7.73;;;4.73;;
55220;SDS011;41089;51.448;6.604;2023-02-08T17:44:43;12.55;;;5.22;;
55220;SDS011;41089;51.448;6.604;2023-02-08T17:50:44;6.97;;;4.75;;
55220;SDS011;41089;51.448;6.604;2023-02-08T17:56:49;10.98;;;5.78;;
55220;SDS011;41089;51.448;6.604;2023-02-08T18:02:55;8.18;;;5.10;;
55220;SDS011;41089;51.448;6.604;2023-02-08T18:08:56;9.65;;;5.50;;
55220;SDS011;41089;51.448;6.604;2023-02-08T18:14:56;11.20;;;4.67;;
55220;SDS011;41089;51.448;6.604;2023-02-08T18:20:56;10.68;;;4.90;;
55220;SDS011;41089;51.448;6.604;2023-02-08T18:26:57;10.90;;;4.90;;
55220;SDS011;41089;51.448;6.604;2023-02-08T18:32:57;8.52;;;5.00;;
55220;SDS011;41089;51.448;6.604;2023-02-08T18:38:58;8.35;;;5.22;;
55220;SDS011;41089;51.448;6.604;2023-02-08T18:44:58;9.17;;;5.17;;
55220;SDS011;41089;51.448;6.604;2023-02-08T18:50:59;9.53;;;5.43;;
55220;SDS011;41089;51.448;6.604;2023-02-08T18:57:02;9.98;;;4.47;;
55220;SDS011;41089;51.448;6.604;2023-02-08T19:03:02;9.02;;;5.55;;
55220;SDS011;41089;51.448;6.604;2023-02-08T19:09:05;11.10;;;5.85;;
55220;SDS011;41089;51.448;6.604;2023-02-08T19:15:07;13.27;;;6.75;;
55220;SDS011;41089;51.448;6.604;2023-02-08T19:21:09;10.73;;;6.97;;
55220;SDS011;41089;51.448;6.604;2023-02-08T19:27:12;11.18;;;5.10;;
55220;SDS011;41089;51.448;6.604;2023-02-08T19:33:15;7.17;;;4.77;;
55220;SDS011;41089;51.448;6.604;2023-02-08T19:39:17;7.80;;;4.63;;
55220;SDS011;41089;51.448;6.604;2023-02-08T19:45:19;14.13;;;4.65;;
55220;SDS011;41089;51.448;6.604;2023-02-08T19:51:20;7.77;;;4.67;;
55220;SDS011;41089;51.448;6.604;2023-02-08T19:57:22;9.07;;;4.95;;
55220;SDS011;41089;51.448;6.604;2023-02-08T20:03:22;9.32;;;6.00;;
55220;SDS011;41089;51.448;6.604;2023-02-08T20:09:23;8.55;;;5.75;;
55220;SDS011;41089;51.448;6.604;2023-02-08T20:15:24;9.65;;;5.28;;
55220;SDS011;41089;51.448;6.604;2023-02-08T20:21:25;9.90;;;5.67;;
55220;SDS011;41089;51.448;6.604;2023-02-08T20:27:26;8.80;;;5.38;;
55220;SDS011;41089;51.448;6.604;2023-02-08T20:33:40;9.73;;;5.47;;
55220;SDS011;41089;51.448;6.604;2023-02-08T20:39:41;10.23;;;5.17;;
55220;SDS011;41089;51.448;6.604;2023-02-08T20:45:41;7.37;;;5.20;;
55220;SDS011;41089;51.448;6.604;2023-02-08T20:51:41;7.45;;;5.35;;
55220;SDS011;41089;51.448;6.604;2023-02-08T20:57:42;9.68;;;5.85;;
55220;SDS011;41089;51.448;6.604;2023-02-08T21:03:42;7.60;;;5.27;;
55220;SDS011;41089;51.448;6.604;2023-02-08T21:09:43;8.68;;;5.22;;
55220;SDS011;41089;51.448;6.604;2023-02-08T21:15:44;9.52;;;6.07;;
55220;SDS011;41089;51.448;6.604;2023-02-08T21:21:47;8.52;;;5.95;;
55220;SDS011;41089;51.448;6.604;2023-02-08T21:27:49;9.73;;;6.13;;
55220;SDS011;41089;51.448;6.604;2023-02-08T21:33:50;8.07;;;5.57;;
55220;SDS011;41089;51.448;6.604;2023-02-08T21:39:51;12.93;;;6.68;;
55220;SDS011;41089;51.448;6.604;2023-02-08T21:45:53;10.68;;;7.07;;
55220;SDS011;41089;51.448;6.604;2023-02-08T21:51:54;13.30;;;7.15;;
55220;SDS011;41089;51.448;6.604;2023-02-08T21:58:37;11.25;;;6.50;;
55220;SDS011;41089;51.448;6.604;2023-02-08T22:04:45;10.75;;;6.03;;
55220;SDS011;41089;51.448;6.604;2023-02-08T22:17:40;11.45;;;6.90;;
55220;SDS011;41089;51.448;6.604;2023-02-08T22:23:43;10.50;;;6.57;;
55220;SDS011;41089;51.448;6.604;2023-02-08T22:29:44;13.20;;;7.30;;
55220;SDS011;41089;51.448;6.604;2023-02-08T22:35:46;14.27;;;7.53;;
55220;SDS011;41089;51.448;6.604;2023-02-08T22:41:47;9.60;;;5.95;;
55220;SDS011;41089;51.448;6.604;2023-02-08T22:47:48;9.25;;;6.40;;
55220;SDS011;41089;51.448;6.604;2023-02-08T22:53:50;12.57;;;7.00;;
55220;SDS011;41089;51.448;6.604;2023-02-08T23:06:16;14.23;;;7.18;;
55220;SDS011;41089;51.448;6.604;2023-02-08T23:12:32;11.73;;;7.95;;
55220;SDS011;41089;51.448;6.604;2023-02-08T23:18:34;13.20;;;7.70;;
55220;SDS011;41089;51.448;6.604;2023-02-08T23:24:34;14.90;;;8.55;;
55220;SDS011;41089;51.448;6.604;2023-02-08T23:30:41;11.80;;;7.78;;
55220;SDS011;41089;51.448;6.604;2023-02-08T23:36:53;15.52;;;7.53;;
55220;SDS011;41089;51.448;6.604;2023-02-08T23:42:54;13.00;;;7.35;;
55220;SDS011;41089;51.448;6.604;2023-02-08T23:48:54;16.07;;;7.10;;
55220;SDS011;41089;51.448;6.604;2023-02-08T23:54:56;15.10;;;7.50;;
